createdAt,value
2023-05-08T00:01:21.510Z,101764.69
2023-05-08T00:03:50.303Z,101758.44
2023-05-08T00:06:19.267Z,101763.56
2023-05-08T00:08:48.034Z,101756.59
2023-05-08T00:11:17.077Z,101755.72
2023-05-08T00:13:47.182Z,101756.53
2023-05-08T00:16:16.065Z,101755.56
2023-05-08T00:18:44.757Z,101758.03
2023-05-08T00:21:13.460Z,101754.34
2023-05-08T00:23:42.130Z,101759.53
2023-05-08T00:26:10.910Z,101753.47
2023-05-08T00:28:39.585Z,101752.75
2023-05-08T00:31:09.708Z,101764.97
2023-05-08T00:33:38.424Z,101760.41
2023-05-08T00:36:08.533Z,101764.63
2023-05-08T00:38:38.049Z,101762.97
2023-05-08T00:41:06.859Z,101761.91
2023-05-08T00:43:37.529Z,101763.50
2023-05-08T00:46:06.828Z,101758.13
2023-05-08T00:48:37.441Z,101764.84
2023-05-08T00:51:07.969Z,101762.88
2023-05-08T00:53:43.250Z,101770.59
2023-05-08T00:56:13.793Z,101761.91
2023-05-08T00:58:44.198Z,101765.38
2023-05-08T01:01:13.177Z,101767.94
2023-05-08T01:03:44.694Z,101770.66
2023-05-08T01:06:14.186Z,101776.75
2023-05-08T01:08:45.805Z,101774.03
2023-05-08T01:11:19.295Z,101779.22
2023-05-08T01:13:55.561Z,101781.19
2023-05-08T01:16:33.650Z,101771.72
2023-05-08T01:19:15.977Z,101779.63
2023-05-08T01:21:51.592Z,101779.66
2023-05-08T01:24:43.709Z,101780.53
2023-05-08T01:27:43.835Z,101776.19
2023-05-08T01:31:04.068Z,101776.06
2023-05-08T01:33:44.096Z,101778.59
2023-05-08T01:36:29.582Z,101781.19
2023-05-08T01:39:08.540Z,101783.81
2023-05-08T01:41:40.553Z,101790.94
2023-05-08T01:44:14.900Z,101798.09
2023-05-08T01:46:46.611Z,101784.88
2023-05-08T01:49:25.426Z,101755.66
2023-05-08T01:52:00.589Z,101777.84
2023-05-08T01:54:35.040Z,101781.31
2023-05-08T01:57:05.423Z,101777.84
2023-05-08T01:59:36.626Z,101778.56
2023-05-08T02:02:06.865Z,101779.34
2023-05-08T02:04:37.265Z,101776.56
2023-05-08T02:07:09.997Z,101770.25
2023-05-08T02:09:42.149Z,101769.53
2023-05-08T02:12:13.216Z,101780.69
2023-05-08T02:14:43.616Z,101772.66
2023-05-08T02:17:15.438Z,101778.88
2023-05-08T02:19:47.995Z,101782.19
2023-05-08T02:22:17.978Z,101768.13
2023-05-08T02:24:47.657Z,101775.22
2023-05-08T02:27:17.376Z,101776.03
2023-05-08T02:29:46.455Z,101781.22
2023-05-08T02:32:17.813Z,101775.94
2023-05-08T02:35:01.942Z,101771.31
2023-05-08T02:37:34.243Z,101776.03
2023-05-08T02:40:05.322Z,101772.53
2023-05-08T02:42:34.663Z,101781.34
2023-05-08T02:45:04.168Z,101771.91
2023-05-08T02:47:40.736Z,101772.75
2023-05-08T02:50:17.729Z,101777.81
2023-05-08T02:52:50.659Z,101783.63
2023-05-08T02:55:34.290Z,101776.78
2023-05-08T02:58:13.072Z,101774.91
2023-05-08T03:00:48.587Z,101776.47
2023-05-08T03:03:24.347Z,101776.28
2023-05-08T03:05:58.819Z,101782.47
2023-05-08T03:08:34.206Z,101781.56
2023-05-08T03:11:06.817Z,101792.03
2023-05-08T03:13:42.504Z,101790.22
2023-05-08T03:16:16.282Z,101798.75
2023-05-08T03:19:00.950Z,101794.34
2023-05-08T03:21:31.905Z,101795.97
2023-05-08T03:24:05.657Z,101808.34
2023-05-08T03:26:36.517Z,101803.19
2023-05-08T03:29:07.325Z,101817.31
2023-05-08T03:31:37.653Z,101818.28
2023-05-08T03:34:07.984Z,101808.78
2023-05-08T03:36:38.270Z,101812.31
2023-05-08T03:39:07.758Z,101822.63
2023-05-08T03:41:36.882Z,101820.94
2023-05-08T03:44:06.364Z,101819.28
2023-05-08T03:46:36.891Z,101808.88
2023-05-08T03:49:07.363Z,101812.47
2023-05-08T03:51:39.862Z,101813.28
2023-05-08T03:54:08.662Z,101815.19
2023-05-08T03:56:37.783Z,101817.81
2023-05-08T03:59:16.916Z,101814.38
2023-05-08T04:01:51.615Z,101820.66
2023-05-08T04:04:25.379Z,101816.34
2023-05-08T04:07:05.158Z,101821.78
2023-05-08T04:09:52.664Z,101822.00
2023-05-08T04:12:37.757Z,101823.03
2023-05-08T04:15:14.293Z,101829.16
2023-05-08T04:17:49.047Z,101826.75
2023-05-08T04:20:23.266Z,101830.34
2023-05-08T04:22:55.959Z,101834.84
2023-05-08T04:25:26.355Z,101829.50
2023-05-08T04:27:57.601Z,101838.53
2023-05-08T04:30:27.292Z,101835.19
2023-05-08T04:32:56.991Z,101838.81
2023-05-08T04:35:26.268Z,101846.84
2023-05-08T04:37:56.641Z,101847.97
2023-05-08T04:40:25.573Z,101847.19
2023-05-08T04:42:54.502Z,101847.22
2023-05-08T04:45:24.759Z,101845.63
2023-05-08T04:47:53.686Z,101847.53
2023-05-08T04:50:23.226Z,101856.44
2023-05-08T04:52:51.980Z,101860.09
2023-05-08T04:55:22.641Z,101867.28
2023-05-08T04:57:51.460Z,101871.91
2023-05-08T05:00:21.134Z,101866.03
2023-05-08T05:02:50.776Z,101864.53
2023-05-08T05:05:19.715Z,101861.41
2023-05-08T05:07:48.541Z,101871.19
2023-05-08T05:10:18.063Z,101874.91
2023-05-08T05:12:49.048Z,101869.91
2023-05-08T05:15:18.530Z,101874.56
2023-05-08T05:17:47.288Z,101875.66
2023-05-08T05:20:16.441Z,101879.25
2023-05-08T05:22:45.802Z,101880.31
2023-05-08T05:25:15.309Z,101877.13
2023-05-08T05:27:45.215Z,101885.09
2023-05-08T05:30:15.968Z,101886.03
2023-05-08T05:32:44.994Z,101881.81
2023-05-08T05:35:14.169Z,101890.69
2023-05-08T05:37:43.561Z,101882.78
2023-05-08T05:40:13.492Z,101888.09
2023-05-08T05:42:44.377Z,101880.22
2023-05-08T05:45:15.028Z,101890.75
2023-05-08T05:47:50.087Z,101889.88
2023-05-08T05:50:22.553Z,101892.59
2023-05-08T05:52:52.144Z,101890.88
2023-05-08T05:55:22.354Z,101898.88
2023-05-08T05:57:51.517Z,101893.63
2023-05-08T06:00:22.747Z,101906.88
2023-05-08T06:02:56.002Z,101898.13
2023-05-08T06:05:25.101Z,101897.25
2023-05-08T06:07:53.857Z,101899.00
2023-05-08T06:10:22.695Z,101896.47
2023-05-08T06:12:51.828Z,101907.09
2023-05-08T06:15:22.417Z,101899.25
2023-05-08T06:17:51.510Z,101897.56
2023-05-08T06:20:21.531Z,101900.28
2023-05-08T06:22:50.340Z,101903.00
2023-05-08T06:25:19.896Z,101908.34
2023-05-08T06:27:48.648Z,101911.91
2023-05-08T06:30:17.518Z,101906.75
2023-05-08T06:32:47.653Z,101907.69
2023-05-08T06:35:18.533Z,101899.84
2023-05-08T06:37:47.412Z,101905.25
2023-05-08T06:40:16.379Z,101907.06
2023-05-08T06:42:45.110Z,101897.47
2023-05-08T06:45:16.254Z,101905.47
2023-05-08T06:47:46.742Z,101904.63
2023-05-08T06:50:15.489Z,101901.19
2023-05-08T06:52:44.233Z,101904.84
2023-05-08T06:55:13.052Z,101912.81
2023-05-08T06:57:41.974Z,101912.88
2023-05-08T07:00:12.015Z,101898.84
2023-05-08T07:02:41.077Z,101906.84
2023-05-08T07:05:12.118Z,101906.88
2023-05-08T07:07:42.724Z,101920.13
2023-05-08T07:10:12.246Z,101915.75
2023-05-08T07:12:40.991Z,101928.13
2023-05-08T07:15:24.557Z,101912.28
2023-05-08T07:17:54.029Z,101923.75
2023-05-08T07:20:25.729Z,101930.88
2023-05-08T07:22:54.531Z,101932.66
2023-05-08T07:25:23.414Z,101925.63
2023-05-08T07:27:52.186Z,101930.03
2023-05-08T07:30:27.707Z,101931.81
2023-05-08T07:32:57.825Z,101931.81
2023-05-08T07:35:30.649Z,101938.91
2023-05-08T07:37:59.472Z,101930.97
2023-05-08T07:40:28.274Z,101930.06
2023-05-08T07:42:57.083Z,101929.19
2023-05-08T07:45:25.913Z,101931.81
2023-05-08T07:47:55.930Z,101934.50
2023-05-08T07:50:25.221Z,101938.03
2023-05-08T07:52:55.341Z,101943.31
2023-05-08T07:55:24.119Z,101940.66
2023-05-08T07:57:52.887Z,101937.13
2023-05-08T08:00:21.926Z,101943.28
2023-05-08T08:02:50.918Z,101951.22
2023-05-08T08:05:19.823Z,101952.13
2023-05-08T08:07:48.650Z,101951.25
2023-05-08T08:10:18.812Z,101944.16
2023-05-08T08:12:47.522Z,101944.16
2023-05-08T08:15:16.230Z,101945.91
2023-05-08T08:17:44.964Z,101934.41
2023-05-08T08:20:14.426Z,101939.72
2023-05-08T08:22:43.164Z,101938.78
2023-05-08T08:25:12.464Z,101936.13
2023-05-08T08:27:42.686Z,101932.59
2023-05-08T08:30:17.510Z,101935.22
2023-05-08T08:32:47.506Z,101941.38
2023-05-08T08:35:16.807Z,101935.19
2023-05-08T08:37:46.040Z,101938.66
2023-05-08T08:40:14.912Z,101941.31
2023-05-08T08:42:45.053Z,101943.94
2023-05-08T08:45:14.028Z,101935.94
2023-05-08T08:47:46.651Z,101943.91
2023-05-08T08:50:16.395Z,101946.53
2023-05-08T08:52:56.873Z,101937.66
2023-05-08T08:55:28.620Z,101943.78
2023-05-08T08:58:08.572Z,101941.97
2023-05-08T09:00:38.719Z,101926.94
2023-05-08T09:03:07.940Z,101926.88
2023-05-08T09:05:37.604Z,101928.56
2023-05-08T09:08:07.247Z,101930.28
2023-05-08T09:10:37.466Z,101938.19
2023-05-08T09:13:07.777Z,101928.44
2023-05-08T09:15:36.736Z,101938.13
2023-05-08T09:18:07.854Z,101929.25
2023-05-08T09:20:37.004Z,101929.19
2023-05-08T09:23:05.820Z,101937.09
2023-05-08T09:25:44.291Z,101943.28
2023-05-08T09:28:21.824Z,101941.50
2023-05-08T09:30:52.223Z,101926.38
2023-05-08T09:33:21.514Z,101933.44
2023-05-08T09:35:50.785Z,101933.47
2023-05-08T09:38:40.065Z,101918.34
2023-05-08T09:41:10.139Z,101921.81
2023-05-08T09:43:40.548Z,101916.31
2023-05-08T09:46:30.105Z,101928.69
2023-05-08T09:49:00.587Z,101921.53
2023-05-08T09:51:30.757Z,101925.06
2023-05-08T09:54:04.078Z,101921.50
2023-05-08T09:56:34.966Z,101925.88
2023-05-08T09:59:06.838Z,101926.72
2023-05-08T10:01:39.703Z,101896.59
2023-05-08T10:04:08.566Z,101922.19
2023-05-08T10:06:37.386Z,101916.91
2023-05-08T10:09:11.281Z,101912.47
2023-05-08T10:11:41.063Z,101841.03
2023-05-08T10:14:12.109Z,101898.97
2023-05-08T10:16:44.771Z,101906.00
2023-05-08T10:19:16.723Z,101905.00
2023-05-08T10:21:49.366Z,101904.03
2023-05-08T10:24:19.958Z,101905.78
2023-05-08T10:27:06.834Z,101899.47
2023-05-08T10:29:48.451Z,101878.06
2023-05-08T10:32:21.223Z,101879.72
2023-05-08T10:34:56.429Z,101885.00
2023-05-08T10:37:25.503Z,101881.34
2023-05-08T10:39:56.564Z,101881.31
2023-05-08T10:42:26.901Z,101879.50
2023-05-08T10:44:57.411Z,101883.88
2023-05-08T10:47:34.658Z,101882.13
2023-05-08T10:50:11.134Z,101869.69
2023-05-08T10:52:48.730Z,101877.50
2023-05-08T10:55:24.151Z,101883.66
2023-05-08T10:58:07.474Z,101872.16
2023-05-08T11:01:17.904Z,101875.72
2023-05-08T11:03:50.666Z,101863.25
2023-05-08T11:06:40.553Z,101855.88
2023-05-08T11:09:09.580Z,101857.53
2023-05-08T11:11:40.360Z,101854.91
2023-05-08T11:14:16.014Z,101855.78
2023-05-08T11:17:08.871Z,101850.28
2023-05-08T11:19:38.973Z,101850.16
2023-05-08T11:22:22.036Z,101852.66
2023-05-08T11:24:54.097Z,101855.34
2023-05-08T11:27:36.881Z,101845.50
2023-05-08T11:30:23.672Z,101846.44
2023-05-08T11:33:15.421Z,101844.59
2023-05-08T11:35:52.979Z,101844.50
2023-05-08T11:38:26.106Z,101840.88
2023-05-08T11:41:00.363Z,101845.97
2023-05-08T11:44:00.894Z,101838.63
2023-05-08T11:46:41.405Z,101845.72
2023-05-08T11:49:16.748Z,101839.41
2023-05-08T11:51:47.586Z,101837.56
2023-05-08T11:54:17.986Z,101836.59
2023-05-08T11:56:48.705Z,101838.34
2023-05-08T11:59:18.013Z,101833.78
2023-05-08T12:04:23.885Z,101831.63
2023-05-08T12:06:59.437Z,101835.88
2023-05-08T12:09:28.858Z,101832.34
2023-05-08T12:12:00.691Z,101830.63
2023-05-08T12:14:29.494Z,101830.78
2023-05-08T12:16:58.378Z,101827.19
2023-05-08T12:19:28.548Z,101817.34
2023-05-08T12:22:01.270Z,101825.09
2023-05-08T12:24:29.995Z,101823.34
2023-05-08T12:26:58.817Z,101822.31
2023-05-08T12:29:27.510Z,101823.13
2023-05-08T12:31:56.691Z,101823.06
2023-05-08T12:34:27.442Z,101829.91
2023-05-08T12:37:04.697Z,101821.94
2023-05-08T12:39:38.035Z,101809.50
2023-05-08T12:42:06.861Z,101822.88
2023-05-08T12:44:35.593Z,101815.00
2023-05-08T12:47:06.014Z,101820.41
2023-05-08T12:49:36.142Z,101809.69
2023-05-08T12:52:06.646Z,101802.34
2023-05-08T12:54:39.877Z,101804.78
2023-05-08T12:57:12.605Z,101811.09
2023-05-08T12:59:42.003Z,101800.53
2023-05-08T13:02:19.159Z,101809.38
2023-05-08T13:04:49.383Z,101790.66
2023-05-08T13:07:18.205Z,101791.38
2023-05-08T13:10:01.205Z,101790.34
2023-05-08T13:12:30.075Z,101791.88
2023-05-08T13:14:58.870Z,101791.91
2023-05-08T13:17:27.706Z,101799.06
2023-05-08T13:19:57.786Z,101791.88
2023-05-08T13:22:26.819Z,101782.91
2023-05-08T13:24:55.701Z,101785.69
2023-05-08T13:27:24.485Z,101777.63
2023-05-08T13:29:53.196Z,101790.00
2023-05-08T13:32:22.064Z,101783.09
2023-05-08T13:34:52.343Z,101788.41
2023-05-08T13:37:25.715Z,101793.72
2023-05-08T13:39:54.525Z,101786.88
2023-05-08T13:42:23.278Z,101777.97
2023-05-08T13:44:51.988Z,101769.91
2023-05-08T13:47:20.750Z,101769.00
2023-05-08T13:49:50.316Z,101771.66
2023-05-08T13:52:19.257Z,101767.19
2023-05-08T13:54:49.409Z,101765.84
2023-05-08T13:57:18.208Z,101766.66
2023-05-08T13:59:46.942Z,101757.00
2023-05-08T14:02:15.778Z,101751.53
2023-05-08T14:04:44.693Z,101755.03
2023-05-08T14:07:13.393Z,101764.63
2023-05-08T14:09:42.060Z,101769.91
2023-05-08T14:12:12.172Z,101763.59
2023-05-08T14:14:40.922Z,101757.38
2023-05-08T14:17:10.605Z,101745.69
2023-05-08T14:19:39.369Z,101745.81
2023-05-08T14:22:08.088Z,101744.81
2023-05-08T14:24:36.946Z,101750.28
2023-05-08T14:27:06.224Z,101743.06
2023-05-08T14:29:36.491Z,101741.97
2023-05-08T14:32:05.721Z,101739.22
2023-05-08T14:34:34.640Z,101726.88
2023-05-08T14:37:03.413Z,101729.44
2023-05-08T14:39:32.212Z,101734.66
2023-05-08T14:44:36.353Z,101733.63
2023-05-08T14:47:05.150Z,101731.00
2023-05-08T14:49:38.192Z,101722.22
2023-05-08T14:52:08.084Z,101721.28
2023-05-08T14:54:36.993Z,101717.59
2023-05-08T14:57:07.634Z,101715.94
2023-05-08T14:59:38.695Z,101721.91
2023-05-08T15:02:12.564Z,101725.38
2023-05-08T15:04:42.513Z,101714.78
2023-05-08T15:07:11.323Z,101711.28
2023-05-08T15:09:40.072Z,101716.47
2023-05-08T15:12:09.124Z,101704.94
2023-05-08T15:14:39.201Z,101695.19
2023-05-08T15:17:07.967Z,101705.84
2023-05-08T15:19:36.687Z,101710.38
2023-05-08T15:22:05.808Z,101701.53
2023-05-08T15:24:34.591Z,101705.06
2023-05-08T15:27:03.307Z,101695.19
2023-05-08T15:29:32.216Z,101690.47
2023-05-08T15:32:02.347Z,101694.88
2023-05-08T15:34:32.896Z,101693.13
2023-05-08T15:37:02.174Z,101698.53
2023-05-08T15:39:31.467Z,101698.53
2023-05-08T15:42:00.263Z,101698.63
2023-05-08T15:44:41.683Z,101702.34
2023-05-08T15:47:19.547Z,101683.84
2023-05-08T15:49:48.342Z,101687.41
2023-05-08T15:52:18.852Z,101668.63
2023-05-08T15:54:47.698Z,101675.28
2023-05-08T15:57:16.627Z,101684.81
2023-05-08T15:59:45.698Z,101675.47
2023-05-08T16:02:14.534Z,101668.63
2023-05-08T16:04:44.711Z,101670.66
2023-05-08T16:07:13.439Z,101666.41
2023-05-08T16:09:42.534Z,101664.84
2023-05-08T16:12:11.223Z,101655.53
2023-05-08T16:14:39.958Z,101668.75
2023-05-08T16:17:09.514Z,101661.06
2023-05-08T16:19:42.864Z,101656.00
2023-05-08T16:22:11.740Z,101655.03
2023-05-08T16:24:40.741Z,101662.28
2023-05-08T16:27:09.470Z,101656.94
2023-05-08T16:29:38.247Z,101657.06
2023-05-08T16:32:07.289Z,101658.84
2023-05-08T16:34:36.702Z,101648.06
2023-05-08T16:37:07.184Z,101652.34
2023-05-08T16:39:36.758Z,101650.34
2023-05-08T16:42:06.365Z,101651.09
2023-05-08T16:44:36.452Z,101660.22
2023-05-08T16:47:05.595Z,101650.66
2023-05-08T16:49:34.532Z,101656.88
2023-05-08T16:52:03.379Z,101659.78
2023-05-08T16:54:33.802Z,101656.34
2023-05-08T16:57:02.846Z,101656.22
2023-05-08T16:59:32.293Z,101661.69
2023-05-08T17:02:01.195Z,101664.53
2023-05-08T17:04:30.847Z,101659.38
2023-05-08T17:07:00.366Z,101664.22
2023-05-08T17:09:29.741Z,101670.53
2023-05-08T17:12:01.852Z,101667.13
2023-05-08T17:14:30.709Z,101660.22
2023-05-08T17:16:59.489Z,101664.28
2023-05-08T17:19:28.530Z,101664.59
2023-05-08T17:21:59.585Z,101660.91
2023-05-08T17:24:28.676Z,101672.00
2023-05-08T17:26:57.503Z,101669.09
2023-05-08T17:29:27.607Z,101664.63
2023-05-08T17:31:56.401Z,101658.88
2023-05-08T17:34:25.184Z,101664.91
2023-05-08T17:36:55.095Z,101663.88
2023-05-08T17:39:24.203Z,101664.78
2023-05-08T17:41:54.134Z,101660.63
2023-05-08T17:44:22.864Z,101667.75
2023-05-08T17:46:53.037Z,101672.25
2023-05-08T17:49:22.062Z,101667.84
2023-05-08T17:51:50.970Z,101670.78
2023-05-08T17:54:19.730Z,101675.28
2023-05-08T17:56:48.619Z,101679.19
2023-05-08T17:59:17.477Z,101678.56
2023-05-08T18:01:46.195Z,101677.25
2023-05-08T18:04:16.429Z,101674.88
2023-05-08T18:06:47.734Z,101674.69
2023-05-08T18:09:16.512Z,101674.28
2023-05-08T18:11:45.314Z,101674.84
2023-05-08T18:14:14.058Z,101682.38
2023-05-08T18:16:42.768Z,101678.41
2023-05-08T18:19:11.885Z,101681.47
2023-05-08T18:21:42.064Z,101680.00
2023-05-08T18:24:10.832Z,101674.09
2023-05-08T18:26:39.681Z,101668.56
2023-05-08T18:29:08.510Z,101673.00
2023-05-08T18:31:37.262Z,101666.03
2023-05-08T18:34:06.294Z,101673.09
2023-05-08T18:36:35.492Z,101671.47
2023-05-08T18:39:05.738Z,101678.47
2023-05-08T18:41:34.612Z,101675.56
2023-05-08T18:44:05.167Z,101676.06
2023-05-08T18:46:34.174Z,101684.41
2023-05-08T18:49:03.008Z,101672.28
2023-05-08T18:51:31.919Z,101681.41
2023-05-08T18:54:00.803Z,101681.59
2023-05-08T18:56:31.092Z,101678.16
2023-05-08T18:59:00.915Z,101687.22
2023-05-08T19:01:29.838Z,101683.84
2023-05-08T19:03:58.615Z,101685.78
2023-05-08T19:06:27.429Z,101694.72
2023-05-08T19:08:56.199Z,101688.56
2023-05-08T19:11:26.089Z,101687.75
2023-05-08T19:13:56.429Z,101692.19
2023-05-08T19:16:25.365Z,101693.09
2023-05-08T19:18:54.294Z,101701.16
2023-05-08T19:21:23.356Z,101707.41
2023-05-08T19:23:54.141Z,101703.97
2023-05-08T19:26:22.910Z,101695.13
2023-05-08T19:28:51.765Z,101710.19
2023-05-08T19:31:21.991Z,101701.44
2023-05-08T19:33:51.125Z,101706.75
2023-05-08T19:36:19.858Z,101696.13
2023-05-08T19:38:48.545Z,101696.16
2023-05-08T19:41:17.880Z,101695.31
2023-05-08T19:43:46.727Z,101692.69
2023-05-08T19:46:15.838Z,101683.88
2023-05-08T19:48:46.048Z,101685.66
2023-05-08T19:51:16.324Z,101679.50
2023-05-08T19:53:45.150Z,101687.44
2023-05-08T19:56:13.991Z,101683.06
2023-05-08T19:58:42.749Z,101684.84
2023-05-08T20:01:11.613Z,101682.22
2023-05-08T20:03:40.468Z,101679.56
2023-05-08T20:06:10.784Z,101676.03
2023-05-08T20:08:39.532Z,101684.00
2023-05-08T20:11:11.673Z,101682.25
2023-05-08T20:13:40.932Z,101680.44
2023-05-08T20:16:09.995Z,101677.81
2023-05-08T20:18:38.780Z,101685.75
2023-05-08T20:21:11.690Z,101676.03
2023-05-08T20:23:41.236Z,101676.06
2023-05-08T20:26:10.025Z,101671.66
2023-05-08T20:28:38.900Z,101669.91
2023-05-08T20:31:07.703Z,101671.66
2023-05-08T20:33:36.660Z,101661.94
2023-05-08T20:36:05.746Z,101669.00
2023-05-08T20:38:36.776Z,101668.13
2023-05-08T20:41:05.965Z,101663.72
2023-05-08T20:43:34.780Z,101661.06
2023-05-08T20:46:03.561Z,101662.81
2023-05-08T20:48:32.773Z,101659.28
2023-05-08T20:51:01.482Z,101667.22
2023-05-08T20:53:30.502Z,101655.78
2023-05-08T20:56:04.796Z,101663.69
2023-05-08T20:58:33.944Z,101661.06
2023-05-08T21:01:02.870Z,101662.81
2023-05-08T21:03:32.154Z,101663.66
2023-05-08T21:06:01.577Z,101661.94
2023-05-08T21:08:30.408Z,101659.25
2023-05-08T21:10:59.172Z,101657.53
2023-05-08T21:13:29.277Z,101654.88
2023-05-08T21:15:58.320Z,101649.56
2023-05-08T21:18:27.346Z,101649.53
2023-05-08T21:20:56.010Z,101641.63
2023-05-08T21:23:24.827Z,101638.09
2023-05-08T21:25:53.525Z,101632.81
2023-05-08T21:28:22.289Z,101639.88
2023-05-08T21:30:52.444Z,101638.09
2023-05-08T21:33:21.166Z,101634.56
2023-05-08T21:35:49.887Z,101637.22
2023-05-08T21:38:18.614Z,101631.94
2023-05-08T21:40:47.402Z,101628.41
2023-05-08T21:43:16.140Z,101634.56
2023-05-08T21:45:44.827Z,101633.66
2023-05-08T21:48:16.285Z,101631.84
2023-05-08T21:50:45.040Z,101638.91
2023-05-08T21:53:13.996Z,101643.28
2023-05-08T21:55:42.720Z,101644.13
2023-05-08T21:58:11.425Z,101640.56
2023-05-08T22:00:40.476Z,101647.56
2023-05-08T22:03:09.359Z,101633.47
2023-05-08T22:05:39.600Z,101636.09
2023-05-08T22:08:08.574Z,101636.09
2023-05-08T22:10:37.593Z,101633.44
2023-05-08T22:13:07.515Z,101636.09
2023-05-08T22:15:36.548Z,101643.09
2023-05-08T22:18:05.806Z,101640.44
2023-05-08T22:20:35.167Z,101634.25
2023-05-08T22:23:05.853Z,101643.94
2023-05-08T22:25:34.580Z,101631.63
2023-05-08T22:28:03.314Z,101633.38
2023-05-08T22:30:32.227Z,101629.00
2023-05-08T22:33:01.148Z,101632.50
2023-05-08T22:35:29.992Z,101630.78
2023-05-08T22:37:58.729Z,101634.25
2023-05-08T22:40:29.685Z,101631.59
2023-05-08T22:42:58.892Z,101628.09
2023-05-08T22:45:28.119Z,101623.72
2023-05-08T22:47:57.353Z,101621.97
2023-05-08T22:50:26.099Z,101626.34
2023-05-08T22:52:54.863Z,101623.69
2023-05-08T22:55:23.665Z,101621.91
2023-05-08T22:57:53.771Z,101628.00
2023-05-08T23:00:22.897Z,101625.34
2023-05-08T23:02:51.687Z,101619.16
2023-05-08T23:05:20.512Z,101611.28
2023-05-08T23:07:49.331Z,101608.72
2023-05-08T23:10:18.163Z,101614.88
2023-05-08T23:12:47.061Z,101612.19
2023-05-08T23:15:17.287Z,101607.78
2023-05-08T23:17:46.076Z,101611.31
2023-05-08T23:20:15.675Z,101603.41
2023-05-08T23:22:44.402Z,101614.03
2023-05-08T23:25:13.452Z,101607.88
2023-05-08T23:27:42.466Z,101603.47
2023-05-08T23:30:13.305Z,101600.00
2023-05-08T23:32:43.777Z,101601.75
2023-05-08T23:35:13.226Z,101604.41
2023-05-08T23:37:42.122Z,101606.16
2023-05-08T23:40:11.725Z,101601.72
2023-05-08T23:42:40.774Z,101604.38
2023-05-08T23:45:11.006Z,101600.88
2023-05-08T23:47:39.801Z,101607.00
2023-05-08T23:50:10.880Z,101596.38
2023-05-08T23:52:39.648Z,101598.09
2023-05-08T23:55:09.699Z,101597.22
2023-05-08T23:57:38.444Z,101599.88
